Time;durP1;ratioP1;P1;durP2;ratioP2;P2;SDS_P1;SDS_P2;PMS_P1;PMS_P2;Temp;Humidity;BMP_temperature;BMP_pressure;BME280_temperature;BME280_humidity;BME280_pressure;Samples;Min_cycle;Max_cycle;Signal;HPM_P1;HPM_P2
2023/04/15 00:02:00;;;;;;;8.98;5.72;;;7.70;99.90;;;;;;5096707;28;20475;-66
2023/04/15 00:04:26;;;;;;;7.75;5.68;;;7.70;99.90;;;;;;5085588;28;20520;-65
2023/04/15 00:06:52;;;;;;;11.15;6.30;;;7.70;99.90;;;;;;5091023;28;20046;-65
2023/04/15 00:09:18;;;;;;;13.82;6.57;;;7.70;99.90;;;;;;5089697;28;20408;-65
2023/04/15 00:11:45;;;;;;;13.55;6.38;;;7.70;99.90;;;;;;5088730;28;20536;-65
2023/04/15 00:14:14;;;;;;;9.13;6.57;;;7.80;99.90;;;;;;5074882;28;20394;-65
2023/04/15 00:16:40;;;;;;;12.88;6.85;;;7.70;99.90;;;;;;5089499;28;20082;-66
2023/04/15 00:19:05;;;;;;;11.77;6.15;;;7.70;99.90;;;;;;5082525;28;20071;-65
2023/04/15 00:21:31;;;;;;;11.30;6.38;;;7.80;99.90;;;;;;5090178;28;20091;-65
2023/04/15 00:23:57;;;;;;;13.35;6.40;;;7.70;99.90;;;;;;5070094;28;20037;-66
2023/04/15 00:26:22;;;;;;;8.82;6.10;;;7.70;99.90;;;;;;5093945;28;20043;-65
2023/04/15 00:28:49;;;;;;;11.40;6.50;;;7.70;99.90;;;;;;5091293;28;20036;-65
2023/04/15 00:31:15;;;;;;;10.40;6.18;;;7.70;99.90;;;;;;5098917;28;20040;-66
2023/04/15 00:33:40;;;;;;;12.25;6.28;;;7.70;99.90;;;;;;5088600;28;20043;-65
2023/04/15 00:36:07;;;;;;;11.95;6.40;;;7.60;99.90;;;;;;5091566;28;20040;-66
2023/04/15 00:38:33;;;;;;;12.15;6.40;;;7.60;99.90;;;;;;5094834;28;20040;-65
2023/04/15 00:40:58;;;;;;;10.25;6.38;;;7.60;99.90;;;;;;5096814;28;20147;-65
2023/04/15 00:43:25;;;;;;;13.07;6.03;;;7.60;99.90;;;;;;5077659;28;20068;-66
2023/04/15 00:45:52;;;;;;;9.95;6.30;;;7.60;99.90;;;;;;5109116;28;20501;-65
2023/04/15 00:48:18;;;;;;;9.95;5.78;;;7.60;99.90;;;;;;5093390;28;20047;-66
2023/04/15 00:50:44;;;;;;;10.85;6.40;;;7.60;99.90;;;;;;5090952;28;20043;-65
2023/04/15 00:53:10;;;;;;;9.85;5.78;;;7.60;99.90;;;;;;5088467;28;20037;-65
2023/04/15 00:55:36;;;;;;;9.15;6.15;;;7.50;99.90;;;;;;5081211;28;20383;-66
2023/04/15 00:58:02;;;;;;;10.15;6.13;;;7.50;99.90;;;;;;5094411;28;20085;-66
2023/04/15 01:00:29;;;;;;;10.75;5.97;;;7.50;99.90;;;;;;5093612;28;20545;-66
2023/04/15 01:02:54;;;;;;;12.88;6.43;;;7.50;99.90;;;;;;5095823;28;20070;-66
2023/04/15 01:05:20;;;;;;;12.15;6.28;;;7.50;99.90;;;;;;5092521;28;20390;-66
2023/04/15 01:07:47;;;;;;;9.60;6.43;;;7.50;99.90;;;;;;5093146;28;20459;-66
2023/04/15 01:10:13;;;;;;;10.32;6.20;;;7.40;99.90;;;;;;5088729;28;20119;-66
2023/04/15 01:12:39;;;;;;;11.95;6.78;;;7.40;99.90;;;;;;5094922;28;20102;-66
2023/04/15 01:15:05;;;;;;;10.27;6.45;;;7.30;99.90;;;;;;5109791;28;20048;-66
2023/04/15 01:17:31;;;;;;;9.90;6.53;;;7.30;99.90;;;;;;5077034;28;20496;-66
2023/04/15 01:19:57;;;;;;;12.63;6.93;;;7.20;99.90;;;;;;5093848;28;20032;-66
2023/04/15 01:22:25;;;;;;;10.15;6.28;;;7.10;99.90;;;;;;5091731;28;20512;-66
2023/04/15 01:25:08;;;;;;;8.95;5.63;;;7.10;99.90;;;;;;5074846;28;20043;-66
2023/04/15 01:27:36;;;;;;;9.95;5.97;;;7.00;99.90;;;;;;5100045;28;20156;-66
2023/04/15 01:30:04;;;;;;;11.27;6.10;;;6.90;99.90;;;;;;5107312;28;20066;-66
2023/04/15 01:32:30;;;;;;;12.38;6.07;;;6.80;99.90;;;;;;5098909;28;20043;-66
2023/04/15 01:34:56;;;;;;;9.70;6.50;;;6.80;99.90;;;;;;5090013;28;20044;-66
2023/04/15 01:37:21;;;;;;;8.60;6.10;;;6.70;99.90;;;;;;5086703;28;20047;-65
2023/04/15 01:39:47;;;;;;;11.00;6.22;;;6.70;99.90;;;;;;5098411;28;20035;-65
2023/04/15 01:42:12;;;;;;;12.70;6.78;;;6.70;99.90;;;;;;5101888;28;20090;-65
2023/04/15 01:44:38;;;;;;;13.63;6.63;;;6.60;99.90;;;;;;5093350;22;20271;-66
2023/04/15 01:47:04;;;;;;;9.98;6.15;;;6.60;99.90;;;;;;5090381;28;20036;-66
2023/04/15 01:49:30;;;;;;;10.68;6.20;;;6.60;99.90;;;;;;5090053;28;20486;-66
2023/04/15 01:51:55;;;;;;;11.57;6.30;;;6.60;99.90;;;;;;5071403;28;20062;-65
2023/04/15 01:54:21;;;;;;;11.27;6.57;;;6.50;99.90;;;;;;5090557;28;20048;-66
2023/04/15 01:56:46;;;;;;;8.95;6.32;;;6.60;99.90;;;;;;5071686;28;20064;-66
2023/04/15 01:59:12;;;;;;;12.43;6.85;;;6.50;99.90;;;;;;5071853;28;20490;-66
2023/04/15 02:01:38;;;;;;;15.73;7.63;;;6.60;99.90;;;;;;5078543;28;20032;-66
2023/04/15 02:04:04;;;;;;;10.75;7.18;;;6.60;99.90;;;;;;5072279;28;20579;-66
2023/04/15 02:06:29;;;;;;;11.07;6.90;;;6.60;99.90;;;;;;5072537;28;20059;-66
2023/04/15 02:08:55;;;;;;;13.90;7.05;;;6.70;99.90;;;;;;5072950;28;20134;-66
2023/04/15 02:11:22;;;;;;;11.98;7.05;;;6.60;99.90;;;;;;5071840;28;20028;-66
2023/04/15 02:13:47;;;;;;;12.38;6.75;;;6.60;99.90;;;;;;5070759;28;20040;-66
2023/04/15 02:16:17;;;;;;;13.82;7.35;;;6.60;99.90;;;;;;5070469;28;20047;-66
2023/04/15 02:18:46;;;;;;;13.63;7.00;;;6.50;99.90;;;;;;5072382;28;20044;-66
2023/04/15 02:21:12;;;;;;;14.27;7.10;;;6.40;99.90;;;;;;5072190;28;20047;-66
2023/04/15 02:23:37;;;;;;;12.30;7.43;;;6.30;99.90;;;;;;5071645;28;20025;-66
2023/04/15 02:26:03;;;;;;;11.70;7.15;;;6.30;99.90;;;;;;5071775;28;20037;-66
2023/04/15 02:28:28;;;;;;;13.52;7.55;;;6.20;99.90;;;;;;5070341;28;20040;-66
2023/04/15 02:30:56;;;;;;;12.60;7.53;;;6.20;99.90;;;;;;5070825;28;20071;-66
2023/04/15 02:33:22;;;;;;;14.77;7.63;;;6.10;99.90;;;;;;5072611;28;20044;-66
2023/04/15 02:35:47;;;;;;;11.82;7.70;;;6.10;99.90;;;;;;5072210;28;20039;-66
2023/04/15 02:38:15;;;;;;;12.60;7.80;;;6.10;99.90;;;;;;5071441;28;20064;-66
2023/04/15 02:40:41;;;;;;;12.15;6.97;;;6.00;99.90;;;;;;5072420;28;20044;-66
2023/04/15 02:43:06;;;;;;;13.80;8.20;;;6.00;99.90;;;;;;5092395;28;20214;-66
2023/04/15 02:45:32;;;;;;;13.73;7.93;;;5.90;99.90;;;;;;5085675;28;20036;-66
2023/04/15 02:47:58;;;;;;;14.82;8.23;;;5.90;99.90;;;;;;5071408;28;20082;-66
2023/04/15 02:50:24;;;;;;;13.25;8.38;;;5.90;99.90;;;;;;5070815;28;20095;-66
2023/04/15 02:52:51;;;;;;;14.70;8.25;;;5.90;99.90;;;;;;5065058;28;20036;-67
2023/04/15 02:55:16;;;;;;;15.38;7.90;;;5.90;99.90;;;;;;5069632;28;20490;-67
2023/04/15 02:57:42;;;;;;;16.75;9.05;;;5.90;99.90;;;;;;5078569;28;20051;-67
2023/04/15 03:00:10;;;;;;;16.23;9.10;;;5.80;99.90;;;;;;5071312;28;20044;-67
2023/04/15 03:02:36;;;;;;;14.77;8.68;;;5.80;99.90;;;;;;5074015;28;20040;-67
2023/04/15 03:05:03;;;;;;;15.13;8.40;;;5.80;99.90;;;;;;5073806;28;20048;-67
2023/04/15 03:07:28;;;;;;;15.45;8.07;;;5.70;99.90;;;;;;5071736;28;20111;-67
2023/04/15 03:09:54;;;;;;;13.55;8.65;;;5.70;99.90;;;;;;5069167;28;20116;-67
2023/04/15 03:12:19;;;;;;;14.95;9.27;;;5.60;99.90;;;;;;5068489;28;20742;-67
2023/04/15 03:14:45;;;;;;;15.30;9.63;;;5.60;99.90;;;;;;5082316;28;20110;-67
2023/04/15 03:17:11;;;;;;;19.65;9.43;;;5.60;99.90;;;;;;5070226;28;20119;-67
2023/04/15 03:19:36;;;;;;;17.15;10.10;;;5.50;99.90;;;;;;5067374;28;20052;-67
2023/04/15 03:22:02;;;;;;;16.40;9.60;;;5.50;99.90;;;;;;5066546;28;20391;-67
2023/04/15 03:24:29;;;;;;;18.85;10.02;;;5.50;99.90;;;;;;5078490;28;20078;-67
2023/04/15 03:26:55;;;;;;;16.73;9.68;;;5.50;99.90;;;;;;5067430;28;20085;-67
2023/04/15 03:29:20;;;;;;;16.77;9.50;;;5.50;99.90;;;;;;5068932;28;20042;-67
2023/04/15 03:31:46;;;;;;;15.73;10.20;;;5.50;99.90;;;;;;5065856;28;20112;-67
2023/04/15 03:34:11;;;;;;;13.95;9.20;;;5.50;99.90;;;;;;5067497;28;20051;-67
2023/04/15 03:36:37;;;;;;;17.67;9.73;;;5.40;99.90;;;;;;5070928;28;20032;-67
2023/04/15 03:39:03;;;;;;;17.27;9.18;;;5.40;99.90;;;;;;5079369;28;20068;-67
2023/04/15 03:41:28;;;;;;;18.58;10.15;;;5.40;99.90;;;;;;5052474;28;20068;-66
2023/04/15 03:43:54;;;;;;;19.00;10.77;;;5.40;99.90;;;;;;5072200;28;20043;-67
2023/04/15 03:46:20;;;;;;;18.13;9.73;;;5.40;99.90;;;;;;5052554;28;20102;-67
2023/04/15 03:48:46;;;;;;;13.57;9.10;;;5.40;99.90;;;;;;5065931;28;20047;-67
2023/04/15 03:51:12;;;;;;;15.07;8.68;;;5.40;99.90;;;;;;5066600;28;20135;-66
2023/04/15 03:53:37;;;;;;;19.58;10.57;;;5.30;99.90;;;;;;5071042;28;20120;-67
2023/04/15 03:56:03;;;;;;;14.70;9.48;;;5.30;99.90;;;;;;5069221;28;20174;-67
2023/04/15 03:58:28;;;;;;;16.08;9.50;;;5.30;99.90;;;;;;5068345;28;20060;-67
2023/04/15 04:00:54;;;;;;;15.75;9.38;;;5.30;99.90;;;;;;5069156;28;20117;-67
2023/04/15 04:03:20;;;;;;;15.60;9.93;;;5.30;99.90;;;;;;5070096;28;20033;-67
2023/04/15 04:05:46;;;;;;;14.85;9.27;;;5.20;99.90;;;;;;5072856;28;20037;-66
2023/04/15 04:08:15;;;;;;;16.55;9.90;;;5.30;99.90;;;;;;5073377;28;20040;-66
2023/04/15 04:10:41;;;;;;;16.98;9.68;;;5.30;99.90;;;;;;5072219;28;20041;-66
2023/04/15 04:13:06;;;;;;;16.75;9.32;;;5.30;99.90;;;;;;5073356;28;20051;-66
2023/04/15 04:15:32;;;;;;;18.33;10.30;;;5.30;99.90;;;;;;5073429;28;20035;-67
2023/04/15 04:17:57;;;;;;;15.50;9.18;;;5.30;99.90;;;;;;5071029;28;20048;-66
2023/04/15 04:20:23;;;;;;;17.73;10.63;;;5.20;99.90;;;;;;5084230;28;20044;-67
2023/04/15 04:22:49;;;;;;;18.90;11.38;;;5.20;99.90;;;;;;5094662;28;20048;-66
2023/04/15 04:25:15;;;;;;;18.52;11.05;;;5.30;99.90;;;;;;5075948;28;20115;-67
2023/04/15 04:27:40;;;;;;;17.60;10.63;;;5.30;99.90;;;;;;5050293;28;20044;-67
2023/04/15 04:30:07;;;;;;;16.50;10.65;;;5.30;99.90;;;;;;5071411;28;20081;-67
2023/04/15 04:32:32;;;;;;;18.20;10.75;;;5.30;99.90;;;;;;5047278;28;20082;-67
2023/04/15 04:34:58;;;;;;;17.10;10.50;;;5.30;99.90;;;;;;5070298;28;20445;-66
2023/04/15 04:37:23;;;;;;;18.45;11.10;;;5.30;99.90;;;;;;5073766;28;20658;-67
2023/04/15 04:39:49;;;;;;;19.67;11.07;;;5.20;99.90;;;;;;5083918;28;20036;-67
2023/04/15 04:42:15;;;;;;;16.92;10.77;;;5.20;99.90;;;;;;5072848;28;20037;-67
2023/04/15 04:44:41;;;;;;;25.25;11.57;;;5.20;99.90;;;;;;5073416;28;20722;-67
2023/04/15 04:47:07;;;;;;;17.85;11.10;;;5.20;99.90;;;;;;5072516;28;20090;-67
2023/04/15 04:49:32;;;;;;;16.40;11.45;;;5.20;99.90;;;;;;5082211;28;20040;-67
2023/04/15 04:51:58;;;;;;;17.73;10.63;;;5.10;99.90;;;;;;5071924;28;20655;-67
2023/04/15 04:54:24;;;;;;;18.38;11.52;;;5.00;99.90;;;;;;5074385;28;20039;-67
2023/04/15 04:56:50;;;;;;;19.70;11.80;;;5.00;99.90;;;;;;5076041;28;20052;-67
2023/04/15 04:59:16;;;;;;;20.30;11.30;;;5.00;99.90;;;;;;5072719;28;20048;-67
2023/04/15 05:01:41;;;;;;;21.13;11.38;;;4.90;99.90;;;;;;5072438;28;20036;-67
2023/04/15 05:04:07;;;;;;;20.83;10.75;;;4.80;99.90;;;;;;5074112;28;20551;-67
2023/04/15 05:06:34;;;;;;;20.55;11.80;;;4.80;99.90;;;;;;5081959;28;20032;-67
2023/04/15 05:09:00;;;;;;;19.85;11.05;;;4.80;99.90;;;;;;5073436;28;20149;-67
2023/04/15 05:11:25;;;;;;;18.52;10.80;;;4.80;99.90;;;;;;5073518;28;20496;-67
2023/04/15 05:13:51;;;;;;;20.73;11.40;;;4.80;99.90;;;;;;5071277;28;20476;-67
2023/04/15 05:16:18;;;;;;;18.42;11.40;;;4.80;99.90;;;;;;5077297;28;20036;-67
2023/04/15 05:18:44;;;;;;;19.10;11.60;;;4.80;99.90;;;;;;5047499;28;20071;-66
2023/04/15 05:21:10;;;;;;;18.77;11.05;;;4.80;99.90;;;;;;5072120;28;20501;-67
2023/04/15 05:23:36;;;;;;;24.35;12.63;;;4.90;99.90;;;;;;5070426;28;20602;-67
2023/04/15 05:26:02;;;;;;;21.65;12.13;;;4.90;99.90;;;;;;5073201;28;20659;-67
2023/04/15 05:28:27;;;;;;;20.42;12.13;;;5.00;99.90;;;;;;5074479;28;20132;-67
2023/04/15 05:30:53;;;;;;;19.17;11.52;;;5.00;99.90;;;;;;5077090;28;20123;-67
2023/04/15 05:33:19;;;;;;;21.02;12.35;;;5.00;99.90;;;;;;5075090;28;20490;-67
2023/04/15 05:35:45;;;;;;;21.20;12.45;;;5.10;99.90;;;;;;5089761;28;20051;-67
2023/04/15 05:38:10;;;;;;;21.50;12.70;;;5.10;99.90;;;;;;5074767;28;20048;-67
2023/04/15 05:40:36;;;;;;;23.00;12.93;;;5.20;99.90;;;;;;5062915;28;20058;-66
2023/04/15 05:43:02;;;;;;;22.23;13.13;;;5.20;99.90;;;;;;5069477;28;20044;-67
2023/04/15 05:45:27;;;;;;;25.42;14.00;;;5.30;99.90;;;;;;5079400;28;20165;-67
2023/04/15 05:47:53;;;;;;;24.15;13.52;;;5.30;99.90;;;;;;5071584;28;20058;-67
2023/04/15 05:50:20;;;;;;;22.95;12.80;;;5.30;99.90;;;;;;5072094;28;20039;-67
2023/04/15 05:52:45;;;;;;;25.60;14.02;;;5.40;99.90;;;;;;5073082;28;20108;-67
2023/04/15 05:55:11;;;;;;;23.27;13.50;;;5.40;99.90;;;;;;5080433;28;20083;-67
2023/04/15 05:57:37;;;;;;;28.45;14.80;;;5.40;99.90;;;;;;5083965;28;20036;-67
2023/04/15 06:00:04;;;;;;;23.70;13.77;;;5.50;99.90;;;;;;5086634;28;20102;-67
2023/04/15 06:02:30;;;;;;;25.75;13.70;;;5.60;99.90;;;;;;5070858;28;20670;-67
2023/04/15 06:04:56;;;;;;;24.88;14.27;;;5.60;99.90;;;;;;5072268;28;20037;-67
2023/04/15 06:07:22;;;;;;;24.67;14.35;;;5.70;99.90;;;;;;5090308;28;20101;-67
2023/04/15 06:09:48;;;;;;;24.60;14.23;;;5.70;99.90;;;;;;5069889;28;20041;-67
2023/04/15 06:12:14;;;;;;;24.92;13.75;;;5.80;99.90;;;;;;5070085;28;20043;-67
2023/04/15 06:14:40;;;;;;;25.63;14.25;;;5.80;99.90;;;;;;5049991;28;20049;-67
2023/04/15 06:17:06;;;;;;;23.73;14.30;;;5.90;99.90;;;;;;5063561;28;20036;-67
2023/04/15 06:19:32;;;;;;;25.58;14.18;;;6.00;99.90;;;;;;5068438;28;20097;-67
2023/04/15 06:21:58;;;;;;;23.63;13.90;;;6.10;99.90;;;;;;5069889;28;20047;-67
2023/04/15 06:24:24;;;;;;;30.13;14.52;;;6.10;99.90;;;;;;5067841;28;20044;-67
2023/04/15 06:26:49;;;;;;;26.55;14.52;;;6.20;99.90;;;;;;5065582;28;20051;-67
2023/04/15 06:29:15;;;;;;;25.88;14.63;;;6.20;99.90;;;;;;5076710;28;20084;-67
2023/04/15 06:31:40;;;;;;;23.98;14.00;;;6.30;99.90;;;;;;5071929;28;20041;-67
2023/04/15 06:34:06;;;;;;;23.60;13.77;;;6.30;99.90;;;;;;5072554;28;20508;-67
2023/04/15 06:36:32;;;;;;;23.05;12.73;;;6.40;99.90;;;;;;5072696;28;20383;-66
2023/04/15 06:38:58;;;;;;;21.85;12.50;;;6.40;99.90;;;;;;5077014;28;20025;-67
2023/04/15 06:41:23;;;;;;;21.08;12.00;;;6.50;99.90;;;;;;5071207;28;20032;-67
2023/04/15 06:43:49;;;;;;;22.58;12.88;;;6.60;99.90;;;;;;5067742;28;20048;-67
2023/04/15 06:46:15;;;;;;;25.00;12.70;;;6.60;99.90;;;;;;5067551;28;20089;-67
2023/04/15 06:48:41;;;;;;;20.48;11.07;;;6.70;99.90;;;;;;5076249;28;20036;-67
2023/04/15 06:51:07;;;;;;;19.90;11.90;;;6.70;99.90;;;;;;5070001;28;20063;-66
2023/04/15 06:53:32;;;;;;;21.17;11.52;;;6.80;99.90;;;;;;5068947;28;20068;-66
2023/04/15 06:55:58;;;;;;;19.25;10.35;;;6.80;99.90;;;;;;5076962;28;20044;-67
2023/04/15 06:58:23;;;;;;;19.92;10.50;;;6.90;99.90;;;;;;5075161;28;20040;-67
2023/04/15 07:00:49;;;;;;;19.02;10.13;;;6.90;99.90;;;;;;5083245;28;20036;-67
2023/04/15 07:03:15;;;;;;;16.98;10.80;;;6.90;99.90;;;;;;5090860;28;20055;-67
2023/04/15 07:05:41;;;;;;;19.45;11.35;;;7.00;99.90;;;;;;5069557;28;20040;-67
2023/04/15 07:08:06;;;;;;;18.13;10.60;;;7.00;99.90;;;;;;5071368;28;20040;-67
2023/04/15 07:10:35;;;;;;;17.23;9.63;;;7.10;99.90;;;;;;5066695;28;20033;-67
2023/04/15 07:13:01;;;;;;;19.13;9.40;;;7.10;99.90;;;;;;5077450;28;20032;-67
2023/04/15 07:15:26;;;;;;;15.25;9.75;;;7.10;99.90;;;;;;5075538;28;20040;-67
2023/04/15 07:17:52;;;;;;;16.13;8.23;;;7.20;99.90;;;;;;5069541;28;20051;-67
2023/04/15 07:20:17;;;;;;;18.05;8.98;;;7.30;99.90;;;;;;5069508;28;20028;-67
2023/04/15 07:22:43;;;;;;;13.90;7.70;;;7.30;99.90;;;;;;5071239;28;20071;-67
2023/04/15 07:25:08;;;;;;;15.07;8.90;;;7.40;99.90;;;;;;5071532;28;20623;-67
2023/04/15 07:27:34;;;;;;;17.75;9.55;;;7.50;99.90;;;;;;5069122;28;20039;-67
2023/04/15 07:30:00;;;;;;;15.63;8.63;;;7.50;99.90;;;;;;5066228;28;20777;-67
2023/04/15 07:32:26;;;;;;;14.88;9.15;;;7.50;99.90;;;;;;5052352;28;20094;-67
2023/04/15 07:34:52;;;;;;;13.43;6.70;;;7.60;99.90;;;;;;5082912;28;20086;-67
2023/04/15 07:37:17;;;;;;;15.77;9.30;;;7.60;99.90;;;;;;5075905;28;20090;-67
2023/04/15 07:39:43;;;;;;;14.05;7.97;;;7.70;99.90;;;;;;5079905;28;20053;-67
2023/04/15 07:42:10;;;;;;;16.52;10.25;;;7.70;99.90;;;;;;5079737;28;20040;-67
2023/04/15 07:47:06;;;;;;;14.70;7.90;;;7.90;99.90;;;;;;5080833;28;20524;-66
2023/04/15 07:49:31;;;;;;;16.75;9.95;;;7.90;99.90;;;;;;5089497;28;20270;-66
2023/04/15 07:51:58;;;;;;;16.52;10.00;;;7.90;99.90;;;;;;5092438;28;20036;-66
2023/04/15 07:54:24;;;;;;;21.23;11.38;;;8.00;99.90;;;;;;5090354;28;20047;-66
2023/04/15 07:56:50;;;;;;;17.60;10.30;;;8.00;99.90;;;;;;5073953;28;20032;-67
2023/04/15 07:59:16;;;;;;;16.83;10.30;;;8.10;99.90;;;;;;5080471;28;20120;-67
2023/04/15 08:01:42;;;;;;;17.70;9.18;;;8.10;99.90;;;;;;5095922;28;20088;-66
2023/04/15 08:04:09;;;;;;;17.52;10.50;;;8.20;99.90;;;;;;5088337;28;20044;-67
2023/04/15 08:06:35;;;;;;;18.35;9.55;;;8.20;99.90;;;;;;5089473;28;20162;-66
2023/04/15 08:09:01;;;;;;;17.45;9.52;;;8.20;99.90;;;;;;5078181;28;20044;-66
2023/04/15 08:11:26;;;;;;;16.27;9.55;;;8.30;99.90;;;;;;5085475;28;20043;-66
2023/04/15 08:13:52;;;;;;;20.02;11.75;;;8.30;99.90;;;;;;5086915;28;20038;-66
2023/04/15 08:16:19;;;;;;;19.00;10.25;;;8.40;99.90;;;;;;5087158;28;20062;-66
2023/04/15 08:18:46;;;;;;;17.05;9.35;;;8.40;99.90;;;;;;5082701;28;20040;-66
2023/04/15 08:21:12;;;;;;;18.55;10.40;;;8.50;99.90;;;;;;5089266;28;20032;-66
2023/04/15 08:23:38;;;;;;;19.70;10.63;;;8.50;99.90;;;;;;5089991;28;20032;-66
2023/04/15 08:26:04;;;;;;;18.20;10.02;;;8.60;99.90;;;;;;5087664;28;20153;-66
2023/04/15 08:28:30;;;;;;;17.73;9.02;;;8.60;99.90;;;;;;5092362;28;20115;-66
2023/04/15 08:30:56;;;;;;;15.30;9.70;;;8.60;99.90;;;;;;5046374;28;20063;-66
2023/04/15 08:33:21;;;;;;;15.32;8.05;;;8.70;99.90;;;;;;5080829;28;20123;-66
2023/04/15 08:35:48;;;;;;;13.20;7.28;;;8.70;99.90;;;;;;5093178;28;20467;-66
2023/04/15 08:38:13;;;;;;;11.68;6.60;;;8.80;99.90;;;;;;5075989;28;20613;-66
2023/04/15 08:40:44;;;;;;;12.63;8.20;;;8.80;99.90;;;;;;5098825;28;20132;-66
2023/04/15 08:43:14;;;;;;;15.32;8.02;;;8.80;99.90;;;;;;5088529;28;20036;-66
2023/04/15 08:45:40;;;;;;;12.98;7.88;;;8.90;99.90;;;;;;5087093;28;20145;-66
2023/04/15 08:48:08;;;;;;;9.13;5.70;;;8.90;99.90;;;;;;5096771;28;20040;-66
2023/04/15 08:50:34;;;;;;;6.53;4.25;;;8.90;99.90;;;;;;5090519;28;20069;-66
2023/04/15 08:53:00;;;;;;;8.02;4.68;;;8.90;99.90;;;;;;5104830;28;20035;-66
2023/04/15 08:55:35;;;;;;;7.07;4.03;;;8.90;99.90;;;;;;5088851;28;20048;-66
2023/04/15 08:58:01;;;;;;;10.35;5.30;;;8.90;99.90;;;;;;5084382;28;20043;-66
2023/04/15 09:00:28;;;;;;;9.45;5.18;;;8.90;99.90;;;;;;5090535;28;20055;-66
2023/04/15 09:02:55;;;;;;;7.72;4.10;;;8.80;99.90;;;;;;5090102;28;20040;-66
2023/04/15 09:05:21;;;;;;;7.82;4.80;;;8.80;99.90;;;;;;5109907;28;20302;-66
2023/04/15 09:07:49;;;;;;;9.82;5.70;;;8.80;99.90;;;;;;5094388;28;20040;-66
2023/04/15 09:10:14;;;;;;;7.07;4.85;;;8.80;99.90;;;;;;5092639;28;20036;-66
2023/04/15 09:12:40;;;;;;;6.80;4.78;;;8.80;99.90;;;;;;5088103;28;20426;-66
2023/04/15 09:15:09;;;;;;;6.53;3.28;;;8.90;99.90;;;;;;5096949;28;20039;-66
2023/04/15 09:17:42;;;;;;;8.15;4.80;;;8.80;99.90;;;;;;5083206;28;20044;-66
2023/04/15 09:20:08;;;;;;;8.52;4.63;;;8.90;99.90;;;;;;5091094;28;20029;-66
2023/04/15 09:22:36;;;;;;;6.90;4.30;;;8.90;99.90;;;;;;5092252;28;20405;-66
2023/04/15 09:25:02;;;;;;;7.82;4.15;;;8.90;99.90;;;;;;5089230;28;20032;-66
2023/04/15 09:27:28;;;;;;;5.70;3.33;;;8.90;99.90;;;;;;5087163;28;20124;-66
2023/04/15 09:29:53;;;;;;;7.15;3.38;;;8.80;99.90;;;;;;5078859;28;20123;-66
2023/04/15 09:32:22;;;;;;;8.02;4.03;;;8.80;99.90;;;;;;5103036;28;20040;-66
2023/04/15 09:34:48;;;;;;;8.00;4.18;;;8.80;99.90;;;;;;5064863;28;20040;-67
2023/04/15 09:37:17;;;;;;;6.70;3.10;;;8.90;99.90;;;;;;5092285;28;20119;-66
2023/04/15 09:39:49;;;;;;;8.02;4.38;;;8.90;99.90;;;;;;5089606;28;20050;-67
2023/04/15 09:42:16;;;;;;;5.55;3.45;;;9.00;99.90;;;;;;5089298;28;20524;-66
2023/04/15 09:44:42;;;;;;;4.78;3.30;;;9.00;99.90;;;;;;5089444;28;20095;-66
2023/04/15 09:47:07;;;;;;;6.25;3.60;;;9.10;99.90;;;;;;5089589;28;20083;-66
2023/04/15 09:49:33;;;;;;;3.70;2.67;;;9.10;99.90;;;;;;5101417;28;20044;-66
2023/04/15 09:52:00;;;;;;;5.05;2.78;;;9.10;99.90;;;;;;5084066;28;20032;-66
2023/04/15 09:54:38;;;;;;;5.03;3.15;;;9.00;99.90;;;;;;5077089;28;20040;-65
2023/04/15 09:57:08;;;;;;;5.03;2.97;;;9.10;99.90;;;;;;5084089;28;20036;-66
2023/04/15 09:59:34;;;;;;;5.28;2.72;;;9.10;99.90;;;;;;5090862;28;20059;-66
2023/04/15 10:02:08;;;;;;;4.50;2.90;;;9.10;99.90;;;;;;5086659;28;20422;-66
2023/04/15 10:04:37;;;;;;;3.33;2.70;;;9.20;99.90;;;;;;5099886;28;20040;-66
2023/04/15 10:07:04;;;;;;;4.82;2.60;;;9.20;99.90;;;;;;5094405;28;20089;-66
2023/04/15 10:09:30;;;;;;;5.05;2.92;;;9.20;99.90;;;;;;5105938;28;20032;-66
2023/04/15 10:11:56;;;;;;;6.03;2.88;;;9.30;99.90;;;;;;5096724;28;20040;-66
2023/04/15 10:14:24;;;;;;;3.47;2.28;;;9.30;99.90;;;;;;5103198;28;20062;-66
2023/04/15 10:16:51;;;;;;;5.90;3.15;;;9.30;99.90;;;;;;5086347;28;20032;-66
2023/04/15 10:19:25;;;;;;;4.35;2.90;;;9.30;99.90;;;;;;5094502;28;20413;-65
2023/04/15 10:21:51;;;;;;;4.20;2.22;;;9.40;99.90;;;;;;5086857;28;20062;-66
2023/04/15 10:24:17;;;;;;;5.90;2.88;;;9.40;99.90;;;;;;5101053;28;20490;-66
2023/04/15 10:26:43;;;;;;;3.42;2.45;;;9.40;99.90;;;;;;5094065;28;20040;-66
2023/04/15 10:29:09;;;;;;;4.20;2.75;;;9.40;99.90;;;;;;5068782;28;20036;-66
2023/04/15 10:31:37;;;;;;;5.35;2.97;;;9.50;99.90;;;;;;5085925;28;20066;-66
2023/04/15 10:34:05;;;;;;;5.63;2.08;;;9.50;99.90;;;;;;5082616;28;20067;-66
2023/04/15 10:36:32;;;;;;;5.75;2.40;;;9.50;99.90;;;;;;5097977;28;20028;-66
2023/04/15 10:38:57;;;;;;;2.47;1.98;;;9.50;99.90;;;;;;5100098;28;20044;-67
2023/04/15 10:41:25;;;;;;;4.55;2.30;;;9.40;99.90;;;;;;5082572;28;20044;-66
2023/04/15 10:44:04;;;;;;;3.92;2.42;;;9.40;99.90;;;;;;5094526;28;20040;-66
2023/04/15 10:46:36;;;;;;;4.47;2.50;;;9.30;99.90;;;;;;5084905;28;20059;-66
2023/04/15 10:49:23;;;;;;;5.15;2.70;;;9.30;99.90;;;;;;5094091;28;20039;-65
2023/04/15 10:51:52;;;;;;;4.05;2.83;;;9.40;99.90;;;;;;5083781;28;20040;-65
2023/04/15 10:54:23;;;;;;;4.10;2.58;;;9.40;99.90;;;;;;5091105;28;20031;-65
2023/04/15 10:57:04;;;;;;;4.30;2.72;;;9.40;99.90;;;;;;5079580;28;20044;-65
2023/04/15 10:59:57;;;;;;;7.75;3.05;;;9.40;99.90;;;;;;5087372;28;20048;-65
2023/04/15 11:02:39;;;;;;;7.78;3.15;;;9.50;99.90;;;;;;5098815;28;20082;-65
2023/04/15 11:05:05;;;;;;;5.32;3.05;;;9.50;99.90;;;;;;5094417;28;20127;-65
2023/04/15 11:07:43;;;;;;;3.13;2.47;;;9.50;99.90;;;;;;5088973;28;20032;-65
2023/04/15 11:10:35;;;;;;;4.25;2.88;;;9.50;99.90;;;;;;5099171;28;20035;-65
2023/04/15 11:13:04;;;;;;;6.93;2.60;;;9.60;99.90;;;;;;5083235;28;20081;-65
2023/04/15 11:15:41;;;;;;;5.13;2.25;;;9.50;99.90;;;;;;5088480;28;20035;-65
2023/04/15 11:18:21;;;;;;;3.80;2.42;;;9.50;99.90;;;;;;5087868;28;20039;-64
2023/04/15 11:20:49;;;;;;;7.40;2.83;;;9.50;99.90;;;;;;5089844;28;20027;-65
2023/04/15 11:23:18;;;;;;;5.28;2.60;;;9.50;99.90;;;;;;5096923;28;20043;-66
2023/04/15 11:25:44;;;;;;;4.35;2.30;;;9.60;99.90;;;;;;5090694;28;20093;-65
2023/04/15 11:28:11;;;;;;;5.07;2.65;;;9.60;99.90;;;;;;5088116;28;20032;-65
2023/04/15 11:30:37;;;;;;;3.70;2.13;;;9.70;99.90;;;;;;5107292;28;20053;-65
2023/04/15 11:33:08;;;;;;;4.93;2.40;;;9.80;99.90;;;;;;5099574;28;20086;-65
2023/04/15 11:35:35;;;;;;;2.13;1.88;;;9.80;99.90;;;;;;5091862;28;20040;-65
2023/04/15 11:38:05;;;;;;;4.70;2.38;;;9.90;99.90;;;;;;5083735;28;20036;-65
2023/04/15 11:40:34;;;;;;;5.53;2.63;;;9.90;99.90;;;;;;5086741;28;20119;-65
2023/04/15 11:43:05;;;;;;;4.45;2.42;;;9.80;99.90;;;;;;5098831;28;20044;-65
2023/04/15 11:45:31;;;;;;;4.40;2.30;;;9.80;99.90;;;;;;5087322;28;20493;-65
2023/04/15 11:48:12;;;;;;;6.13;2.40;;;9.80;99.90;;;;;;5089224;28;20032;-65
2023/04/15 11:50:41;;;;;;;4.93;3.10;;;9.80;99.90;;;;;;5080400;28;20401;-65
2023/04/15 11:53:09;;;;;;;3.95;2.53;;;9.80;99.90;;;;;;5081780;28;20037;-65
2023/04/15 11:55:43;;;;;;;6.28;2.63;;;9.90;99.90;;;;;;5090496;28;20524;-65
2023/04/15 11:58:14;;;;;;;5.72;2.90;;;9.80;99.90;;;;;;5073334;28;20090;-65
2023/04/15 12:00:44;;;;;;;7.53;2.90;;;9.70;99.90;;;;;;5089545;28;20043;-65
2023/04/15 12:03:20;;;;;;;4.93;3.00;;;9.70;99.90;;;;;;5088604;28;20040;-65
2023/04/15 12:06:09;;;;;;;7.15;2.80;;;9.60;99.90;;;;;;5108157;28;20040;-65
2023/04/15 12:08:55;;;;;;;11.27;3.42;;;9.60;99.90;;;;;;5090815;28;20068;-65
2023/04/15 12:11:29;;;;;;;6.85;2.97;;;9.60;99.90;;;;;;5069085;28;20047;-65
2023/04/15 12:14:06;;;;;;;6.28;2.97;;;9.70;99.90;;;;;;5081147;28;20150;-65
2023/04/15 12:16:34;;;;;;;4.70;3.20;;;9.70;99.90;;;;;;5089093;28;20040;-65
2023/04/15 12:19:03;;;;;;;7.00;2.78;;;9.70;99.90;;;;;;5106020;28;20503;-65
2023/04/15 12:21:34;;;;;;;5.25;3.28;;;9.70;99.90;;;;;;5089383;28;20032;-65
2023/04/15 12:24:05;;;;;;;8.35;3.20;;;9.70;99.90;;;;;;5089358;28;20042;-65
2023/04/15 12:26:35;;;;;;;5.68;2.33;;;9.70;99.90;;;;;;5068803;28;20164;-66
2023/04/15 12:29:06;;;;;;;7.43;2.90;;;9.70;99.90;;;;;;5113430;28;20046;-65
2023/04/15 12:31:36;;;;;;;5.75;3.25;;;9.60;99.90;;;;;;5094466;28;20286;-65
2023/04/15 12:34:03;;;;;;;5.28;2.80;;;9.60;99.90;;;;;;5095137;28;20554;-66
2023/04/15 12:36:35;;;;;;;5.13;2.58;;;9.60;99.90;;;;;;5085339;28;20036;-65
2023/04/15 12:39:02;;;;;;;3.67;2.30;;;9.60;99.90;;;;;;5115231;28;20077;-66
2023/04/15 12:41:27;;;;;;;6.78;2.85;;;9.70;99.90;;;;;;5104190;28;20397;-66
2023/04/15 12:43:53;;;;;;;6.00;1.98;;;9.70;99.90;;;;;;5092732;28;20032;-65
2023/04/15 12:46:19;;;;;;;4.63;1.80;;;9.80;99.90;;;;;;5089747;28;20036;-65
2023/04/15 12:48:45;;;;;;;5.68;2.03;;;9.80;99.90;;;;;;5093808;28;20099;-65
2023/04/15 12:51:10;;;;;;;6.38;1.90;;;9.80;99.90;;;;;;5107898;28;20039;-65